Time;durP1;ratioP1;P1;durP2;ratioP2;P2;SDS_P1;SDS_P2;PMS_P1;PMS_P2;Temp;Humidity;BMP_temperature;BMP_pressure;BME280_temperature;BME280_humidity;BME280_pressure;Samples;Min_cycle;Max_cycle;Signal;HPM_P1;HPM_P2
2021/10/22 00:00:39;;;;;;;4.53;1.50;;;;;;;;;;5053530;28;20242;-71
2021/10/22 00:03:06;;;;;;;6.67;1.30;;;;;;;;;;5053195;28;20264;-71
2021/10/22 00:05:33;;;;;;;6.23;1.30;;;;;;;;;;5054340;28;20281;-71
2021/10/22 00:07:59;;;;;;;9.37;1.90;;;;;;;;;;5054591;28;20207;-71
2021/10/22 00:10:26;;;;;;;7.60;2.00;;;;;;;;;;5053010;28;20245;-71
2021/10/22 00:12:52;;;;;;;6.23;1.97;;;;;;;;;;5055574;28;20692;-71
2021/10/22 00:15:21;;;;;;;8.50;1.70;;;;;;;;;;5053434;28;20289;-71
2021/10/22 00:17:48;;;;;;;12.87;1.80;;;;;;;;;;5054394;28;20270;-71
2021/10/22 00:20:14;;;;;;;9.73;1.80;;;;;;;;;;5056176;28;20226;-71
2021/10/22 00:22:40;;;;;;;11.97;2.13;;;;;;;;;;5055821;28;20618;-71
2021/10/22 00:25:08;;;;;;;7.37;1.73;;;;;;;;;;5056569;28;20222;-71
2021/10/22 00:27:35;;;;;;;8.10;1.73;;;;;;;;;;5055955;28;20240;-71
2021/10/22 00:30:01;;;;;;;10.83;2.10;;;;;;;;;;5059092;28;20727;-71
2021/10/22 00:32:29;;;;;;;8.43;1.60;;;;;;;;;;5056891;28;20206;-71
2021/10/22 00:34:55;;;;;;;8.93;1.87;;;;;;;;;;5059929;28;20267;-72
2021/10/22 00:37:22;;;;;;;7.97;1.50;;;;;;;;;;5057794;28;20887;-72
2021/10/22 00:39:48;;;;;;;8.57;1.60;;;;;;;;;;5055783;28;20230;-71
2021/10/22 00:42:16;;;;;;;9.40;2.27;;;;;;;;;;5055572;28;20211;-72
2021/10/22 00:44:43;;;;;;;9.47;1.97;;;;;;;;;;5057852;28;20271;-72
2021/10/22 00:47:10;;;;;;;11.37;2.10;;;;;;;;;;5057619;28;20211;-71
2021/10/22 00:49:37;;;;;;;10.83;1.90;;;;;;;;;;5058315;28;20222;-72
2021/10/22 00:52:05;;;;;;;8.13;2.23;;;;;;;;;;5057630;28;20246;-72
2021/10/22 00:54:31;;;;;;;10.03;1.80;;;;;;;;;;5057491;28;20234;-71
2021/10/22 00:56:58;;;;;;;6.43;2.07;;;;;;;;;;5057415;28;20213;-71
2021/10/22 00:59:25;;;;;;;10.37;1.90;;;;;;;;;;5054569;28;20210;-71
2021/10/22 01:01:52;;;;;;;5.80;1.47;;;;;;;;;;5056375;28;20269;-71
2021/10/22 01:04:18;;;;;;;9.37;2.37;;;;;;;;;;5056105;28;20223;-72
2021/10/22 01:06:46;;;;;;;7.97;1.67;;;;;;;;;;5055067;28;20227;-71
2021/10/22 01:09:13;;;;;;;6.67;1.67;;;;;;;;;;5058784;28;20226;-71
2021/10/22 01:11:40;;;;;;;5.90;1.53;;;;;;;;;;5057042;28;20214;-72
2021/10/22 01:14:09;;;;;;;9.43;1.50;;;;;;;;;;5055607;28;20238;-71
2021/10/22 01:16:37;;;;;;;7.03;1.40;;;;;;;;;;5057412;28;20223;-72
2021/10/22 01:19:04;;;;;;;6.70;1.53;;;;;;;;;;5057137;28;20321;-72
2021/10/22 01:21:32;;;;;;;6.07;2.00;;;;;;;;;;5055322;28;20207;-72
2021/10/22 01:23:59;;;;;;;7.00;1.90;;;;;;;;;;5054609;28;20732;-72
2021/10/22 01:26:25;;;;;;;9.23;1.50;;;;;;;;;;5055946;28;20256;-72
2021/10/22 01:28:51;;;;;;;8.17;1.60;;;;;;;;;;5057197;28;20214;-72
2021/10/22 01:31:18;;;;;;;8.97;1.53;;;;;;;;;;5054948;28;20215;-72
2021/10/22 01:33:48;;;;;;;4.63;1.40;;;;;;;;;;5057042;28;20633;-72
2021/10/22 01:36:15;;;;;;;6.70;2.00;;;;;;;;;;5058041;28;20305;-72
2021/10/22 01:38:43;;;;;;;13.93;2.20;;;;;;;;;;5058362;28;20219;-73
2021/10/22 01:41:10;;;;;;;6.80;1.70;;;;;;;;;;5062833;28;20211;-73
2021/10/22 01:43:40;;;;;;;13.90;2.47;;;;;;;;;;5042833;28;20215;-73
2021/10/22 01:46:06;;;;;;;10.97;2.27;;;;;;;;;;5062412;28;20227;-73
2021/10/22 01:48:33;;;;;;;9.00;1.97;;;;;;;;;;5062783;28;20219;-72
2021/10/22 01:50:59;;;;;;;7.27;1.70;;;;;;;;;;5058360;28;20552;-72
2021/10/22 01:53:26;;;;;;;9.77;2.00;;;;;;;;;;5057185;28;20232;-72
2021/10/22 01:55:54;;;;;;;12.50;2.37;;;;;;;;;;5056346;28;20219;-72
2021/10/22 01:58:20;;;;;;;7.53;2.07;;;;;;;;;;5057825;28;20226;-72
2021/10/22 02:00:47;;;;;;;14.10;2.50;;;;;;;;;;5057889;28;20210;-72
2021/10/22 02:03:14;;;;;;;9.57;2.20;;;;;;;;;;5057243;28;20642;-72
2021/10/22 02:05:41;;;;;;;6.87;1.53;;;;;;;;;;5057116;28;20563;-72
2021/10/22 02:08:07;;;;;;;8.50;1.93;;;;;;;;;;5055477;28;20212;-72
2021/10/22 02:10:33;;;;;;;8.17;2.27;;;;;;;;;;5056975;28;20242;-72
2021/10/22 02:13:02;;;;;;;7.90;2.20;;;;;;;;;;5055078;28;20215;-72
2021/10/22 02:15:28;;;;;;;7.50;1.50;;;;;;;;;;5056035;28;20221;-72
2021/10/22 02:17:55;;;;;;;10.87;2.93;;;;;;;;;;5056110;28;20217;-72
2021/10/22 02:20:21;;;;;;;17.60;2.27;;;;;;;;;;5056224;28;20225;-72
2021/10/22 02:22:48;;;;;;;10.60;1.90;;;;;;;;;;5056972;28;20219;-72
2021/10/22 02:25:14;;;;;;;10.20;1.97;;;;;;;;;;5057522;28;20238;-72
2021/10/22 02:27:41;;;;;;;11.70;1.87;;;;;;;;;;5053385;28;20237;-72
2021/10/22 02:30:10;;;;;;;6.30;1.40;;;;;;;;;;5053669;28;20207;-72
2021/10/22 02:32:36;;;;;;;8.07;1.83;;;;;;;;;;5052450;28;20405;-71
2021/10/22 02:35:03;;;;;;;7.03;1.77;;;;;;;;;;5054034;28;20237;-72
2021/10/22 02:37:29;;;;;;;8.37;1.53;;;;;;;;;;5055955;28;20202;-72
2021/10/22 02:39:56;;;;;;;8.53;1.80;;;;;;;;;;5053927;28;20235;-72
2021/10/22 02:42:22;;;;;;;11.03;1.80;;;;;;;;;;5052134;28;20297;-72
2021/10/22 02:44:49;;;;;;;7.20;1.50;;;;;;;;;;5054531;28;20242;-71
2021/10/22 02:47:16;;;;;;;7.57;1.47;;;;;;;;;;5056482;28;20727;-71
2021/10/22 02:49:43;;;;;;;10.13;2.10;;;;;;;;;;5053222;28;20643;-71
2021/10/22 02:52:09;;;;;;;6.90;1.90;;;;;;;;;;5054854;28;20212;-71
2021/10/22 02:54:35;;;;;;;8.83;1.80;;;;;;;;;;5055665;28;20219;-71
2021/10/22 02:57:02;;;;;;;12.53;2.00;;;;;;;;;;5055564;28;20239;-71
2021/10/22 02:59:28;;;;;;;6.80;1.80;;;;;;;;;;5055385;28;20213;-72
2021/10/22 03:01:55;;;;;;;8.50;1.50;;;;;;;;;;5054823;28;20223;-72
2021/10/22 03:04:22;;;;;;;8.17;2.10;;;;;;;;;;5054546;28;20225;-72
2021/10/22 03:06:49;;;;;;;9.90;1.73;;;;;;;;;;5054175;28;20781;-71
2021/10/22 03:09:15;;;;;;;8.80;1.50;;;;;;;;;;5052967;28;21193;-72
2021/10/22 03:11:41;;;;;;;5.93;1.70;;;;;;;;;;5054762;28;20614;-72
2021/10/22 03:14:08;;;;;;;9.37;2.03;;;;;;;;;;5055425;28;20238;-72
2021/10/22 03:16:34;;;;;;;10.10;1.83;;;;;;;;;;5054543;28;20238;-72
2021/10/22 03:19:01;;;;;;;6.67;1.73;;;;;;;;;;5054382;28;20231;-72
2021/10/22 03:21:29;;;;;;;10.57;1.93;;;;;;;;;;5058863;28;20214;-72
2021/10/22 03:23:56;;;;;;;12.40;1.73;;;;;;;;;;5060645;28;20254;-72
2021/10/22 03:26:23;;;;;;;9.00;2.13;;;;;;;;;;5058987;28;20666;-72
2021/10/22 03:28:50;;;;;;;9.33;2.27;;;;;;;;;;5056000;28;20221;-72
2021/10/22 03:31:16;;;;;;;7.37;2.10;;;;;;;;;;5058073;28;20741;-72
2021/10/22 03:33:43;;;;;;;8.07;1.80;;;;;;;;;;5054310;28;20227;-72
2021/10/22 03:36:09;;;;;;;9.80;2.17;;;;;;;;;;5053364;28;20277;-72
2021/10/22 03:38:37;;;;;;;13.13;2.93;;;;;;;;;;5053185;28;20282;-71
2021/10/22 03:41:04;;;;;;;11.33;2.93;;;;;;;;;;5053714;28;20277;-72
2021/10/22 03:43:30;;;;;;;18.27;2.13;;;;;;;;;;5053174;28;20211;-72
2021/10/22 03:45:56;;;;;;;7.63;2.10;;;;;;;;;;5054005;28;20211;-72
2021/10/22 03:48:23;;;;;;;9.60;2.30;;;;;;;;;;5054379;28;20287;-72
2021/10/22 03:50:49;;;;;;;10.13;1.70;;;;;;;;;;5053099;28;20210;-72
2021/10/22 03:53:16;;;;;;;12.23;2.80;;;;;;;;;;5055018;28;20295;-71
2021/10/22 03:55:44;;;;;;;10.80;1.80;;;;;;;;;;5055340;28;20289;-72
2021/10/22 03:58:10;;;;;;;13.73;2.53;;;;;;;;;;5054337;28;20268;-71
2021/10/22 04:00:37;;;;;;;9.73;1.83;;;;;;;;;;5054315;28;20210;-71
2021/10/22 04:03:04;;;;;;;12.30;1.83;;;;;;;;;;5056797;28;20217;-72
2021/10/22 04:05:32;;;;;;;12.47;2.67;;;;;;;;;;5059923;28;20234;-72
2021/10/22 04:07:59;;;;;;;6.40;1.67;;;;;;;;;;5058144;28;20215;-72
2021/10/22 04:10:25;;;;;;;8.73;2.00;;;;;;;;;;5058787;28;20214;-71
2021/10/22 04:12:53;;;;;;;8.07;1.97;;;;;;;;;;5056674;28;20284;-72
2021/10/22 04:15:21;;;;;;;10.10;1.93;;;;;;;;;;5059057;28;20236;-71
2021/10/22 04:17:47;;;;;;;10.47;2.63;;;;;;;;;;5058299;28;20213;-71
2021/10/22 04:20:14;;;;;;;7.20;1.80;;;;;;;;;;5058513;28;20253;-72
2021/10/22 04:22:40;;;;;;;7.67;1.80;;;;;;;;;;5058451;28;20229;-71
2021/10/22 04:25:08;;;;;;;9.40;2.73;;;;;;;;;;5055909;28;20309;-71
2021/10/22 04:27:35;;;;;;;8.10;1.70;;;;;;;;;;5060898;28;20198;-72
2021/10/22 04:30:06;;;;;;;10.60;2.53;;;;;;;;;;5061656;28;20220;-72
2021/10/22 04:32:32;;;;;;;16.77;2.50;;;;;;;;;;5057024;28;20444;-75
2021/10/22 04:34:59;;;;;;;7.10;1.60;;;;;;;;;;5057187;28;20226;-74
2021/10/22 04:37:31;;;;;;;9.87;1.77;;;;;;;;;;5057420;28;20341;-73
2021/10/22 04:42:46;;;;;;;13.07;2.40;;;;;;;;;;5056550;28;20232;-73
2021/10/22 04:45:14;;;;;;;9.83;2.47;;;;;;;;;;5057292;28;20273;-73
2021/10/22 04:47:41;;;;;;;6.13;1.50;;;;;;;;;;5058766;28;20328;-73
2021/10/22 04:50:09;;;;;;;5.83;1.70;;;;;;;;;;5056557;28;20232;-72
2021/10/22 04:52:37;;;;;;;4.43;1.60;;;;;;;;;;5057167;28;20253;-73
2021/10/22 04:55:05;;;;;;;6.13;1.63;;;;;;;;;;5057427;28;20235;-72
2021/10/22 04:57:32;;;;;;;7.07;1.10;;;;;;;;;;5055550;28;20286;-72
2021/10/22 04:59:58;;;;;;;7.10;1.30;;;;;;;;;;5056623;28;20215;-72
2021/10/22 05:02:26;;;;;;;3.63;1.50;;;;;;;;;;5055429;28;20286;-71
2021/10/22 05:04:52;;;;;;;10.03;1.70;;;;;;;;;;5057398;28;20272;-72
2021/10/22 05:07:19;;;;;;;7.67;1.93;;;;;;;;;;5056818;28;20603;-73
2021/10/22 05:09:45;;;;;;;4.90;2.20;;;;;;;;;;5057001;28;20289;-73
2021/10/22 05:12:11;;;;;;;6.47;1.50;;;;;;;;;;5055642;28;20605;-72
2021/10/22 05:14:38;;;;;;;4.27;1.50;;;;;;;;;;5057071;28;20308;-72
2021/10/22 05:17:05;;;;;;;9.63;2.10;;;;;;;;;;5058704;28;20617;-72
2021/10/22 05:19:33;;;;;;;7.27;2.10;;;;;;;;;;5056306;28;20230;-73
2021/10/22 05:21:59;;;;;;;11.77;2.17;;;;;;;;;;5056745;28;20266;-72
2021/10/22 05:24:25;;;;;;;7.40;1.70;;;;;;;;;;5056341;28;20290;-73
2021/10/22 05:26:52;;;;;;;7.70;2.37;;;;;;;;;;5056308;28;20273;-73
2021/10/22 05:29:18;;;;;;;8.37;1.83;;;;;;;;;;5056714;28;20661;-73
2021/10/22 05:31:45;;;;;;;6.53;1.87;;;;;;;;;;5056485;28;20220;-73
2021/10/22 05:34:12;;;;;;;6.57;2.13;;;;;;;;;;5058017;28;20639;-73
2021/10/22 05:36:39;;;;;;;6.07;1.70;;;;;;;;;;5056205;28;20232;-73
2021/10/22 05:39:06;;;;;;;9.13;2.53;;;;;;;;;;5056125;28;20223;-73
2021/10/22 05:41:32;;;;;;;8.10;2.27;;;;;;;;;;5057185;28;20204;-74
2021/10/22 05:43:59;;;;;;;9.70;1.90;;;;;;;;;;5056644;28;20211;-73
2021/10/22 05:46:25;;;;;;;7.00;1.97;;;;;;;;;;5056667;28;20436;-73
2021/10/22 05:48:51;;;;;;;9.83;2.23;;;;;;;;;;5055899;28;20277;-73
2021/10/22 05:51:18;;;;;;;8.23;2.40;;;;;;;;;;5056085;28;20270;-73
2021/10/22 05:53:45;;;;;;;10.30;2.00;;;;;;;;;;5053864;28;20572;-73
2021/10/22 05:56:12;;;;;;;10.03;2.17;;;;;;;;;;5056869;28;20302;-73
2021/10/22 05:58:38;;;;;;;8.17;1.87;;;;;;;;;;5055137;28;20212;-73
2021/10/22 06:01:05;;;;;;;8.10;2.43;;;;;;;;;;5054561;28;20268;-73
2021/10/22 06:03:31;;;;;;;6.53;2.53;;;;;;;;;;5054461;28;20220;-73
2021/10/22 06:05:57;;;;;;;8.63;2.23;;;;;;;;;;5053500;28;20281;-73
2021/10/22 06:08:24;;;;;;;7.87;1.70;;;;;;;;;;5052485;28;20973;-73
2021/10/22 06:10:51;;;;;;;5.80;1.97;;;;;;;;;;5052909;28;20266;-73
2021/10/22 06:13:18;;;;;;;7.47;2.30;;;;;;;;;;5052345;28;20214;-73
2021/10/22 06:15:45;;;;;;;7.83;3.30;;;;;;;;;;5052781;28;20226;-73
2021/10/22 06:18:14;;;;;;;8.27;2.07;;;;;;;;;;5054355;28;20280;-73
2021/10/22 06:20:45;;;;;;;9.00;2.17;;;;;;;;;;5054185;28;20231;-73
2021/10/22 06:25:57;;;;;;;9.13;2.03;;;;;;;;;;5052051;28;20310;-73
2021/10/22 06:28:23;;;;;;;8.10;1.93;;;;;;;;;;5051736;28;20659;-72
2021/10/22 06:30:50;;;;;;;8.40;2.67;;;;;;;;;;5051604;28;20289;-73
2021/10/22 06:33:16;;;;;;;9.67;1.77;;;;;;;;;;5052143;28;20225;-73
2021/10/22 06:35:44;;;;;;;9.60;2.77;;;;;;;;;;5050593;28;20243;-73
2021/10/22 06:38:11;;;;;;;8.20;2.37;;;;;;;;;;5050665;28;20346;-73
2021/10/22 06:40:37;;;;;;;9.30;1.90;;;;;;;;;;5051507;28;20243;-73
2021/10/22 06:43:05;;;;;;;8.17;1.87;;;;;;;;;;5049467;28;20219;-73
2021/10/22 06:45:31;;;;;;;7.20;2.00;;;;;;;;;;5051564;28;20204;-73
2021/10/22 06:47:58;;;;;;;8.63;1.87;;;;;;;;;;5048953;28;20209;-73
2021/10/22 06:50:24;;;;;;;12.57;2.23;;;;;;;;;;5051470;28;20584;-75
2021/10/22 06:52:51;;;;;;;11.40;2.50;;;;;;;;;;5052321;28;20208;-73
2021/10/22 06:55:17;;;;;;;10.00;2.40;;;;;;;;;;5051185;28;20967;-72
2021/10/22 06:57:44;;;;;;;7.93;2.33;;;;;;;;;;5051679;28;20235;-74
2021/10/22 07:00:12;;;;;;;7.50;1.70;;;;;;;;;;5050569;28;20216;-73
2021/10/22 07:02:47;;;;;;;4.73;1.57;;;;;;;;;;5052868;28;20281;-73
2021/10/22 07:05:24;;;;;;;9.60;3.10;;;;;;;;;;5053937;28;20694;-73
2021/10/22 07:07:50;;;;;;;10.47;3.23;;;;;;;;;;5054869;28;20207;-73
2021/10/22 07:10:16;;;;;;;12.83;2.10;;;;;;;;;;5052975;28;20593;-72
2021/10/22 07:12:43;;;;;;;8.73;2.40;;;;;;;;;;5051433;28;20224;-72
2021/10/22 07:15:09;;;;;;;8.23;2.30;;;;;;;;;;5051912;28;20249;-73
2021/10/22 07:17:37;;;;;;;11.83;2.07;;;;;;;;;;5051944;28;20239;-73
2021/10/22 07:20:04;;;;;;;6.47;1.90;;;;;;;;;;5050634;28;20343;-72
2021/10/22 07:22:32;;;;;;;8.07;2.00;;;;;;;;;;5049584;28;20784;-73
2021/10/22 07:24:59;;;;;;;10.70;2.10;;;;;;;;;;5053657;28;20224;-73
2021/10/22 07:27:26;;;;;;;4.60;1.80;;;;;;;;;;5051954;28;20685;-72
2021/10/22 07:29:52;;;;;;;9.03;2.73;;;;;;;;;;5051032;28;20662;-72
2021/10/22 07:32:19;;;;;;;12.67;2.33;;;;;;;;;;5050000;28;20291;-73
2021/10/22 07:34:46;;;;;;;12.77;2.40;;;;;;;;;;5051948;28;21002;-72
2021/10/22 07:37:13;;;;;;;10.73;2.77;;;;;;;;;;5053478;28;20224;-73
2021/10/22 07:39:40;;;;;;;7.83;2.13;;;;;;;;;;5052123;28;20227;-73
2021/10/22 07:42:07;;;;;;;9.00;2.30;;;;;;;;;;5050986;28;20229;-73
2021/10/22 07:44:33;;;;;;;12.10;2.67;;;;;;;;;;5053640;28;20244;-73
2021/10/22 07:47:00;;;;;;;10.00;2.20;;;;;;;;;;5050192;28;20613;-74
2021/10/22 07:49:26;;;;;;;8.70;2.50;;;;;;;;;;5051039;28;20240;-73
2021/10/22 07:51:54;;;;;;;10.80;2.43;;;;;;;;;;5050594;28;20258;-73
2021/10/22 07:54:20;;;;;;;8.10;2.40;;;;;;;;;;5050471;28;20659;-74
2021/10/22 07:56:47;;;;;;;9.90;2.67;;;;;;;;;;5046756;28;20232;-73
2021/10/22 07:59:14;;;;;;;13.27;2.53;;;;;;;;;;5048640;28;20280;-74
2021/10/22 08:01:42;;;;;;;10.40;2.33;;;;;;;;;;5050946;28;20289;-73
2021/10/22 08:04:09;;;;;;;9.23;2.30;;;;;;;;;;5050422;28;20268;-73
2021/10/22 08:06:37;;;;;;;8.43;2.30;;;;;;;;;;5052053;28;20245;-73
2021/10/22 08:09:05;;;;;;;13.07;2.83;;;;;;;;;;5050046;28;20661;-74
2021/10/22 08:11:31;;;;;;;11.23;2.57;;;;;;;;;;5052714;28;20235;-73
2021/10/22 08:13:58;;;;;;;10.70;2.47;;;;;;;;;;5051727;28;20247;-74
2021/10/22 08:16:25;;;;;;;8.50;2.50;;;;;;;;;;5050738;28;20229;-73
2021/10/22 08:18:52;;;;;;;8.80;2.30;;;;;;;;;;5051063;28;20247;-73
2021/10/22 08:21:21;;;;;;;11.53;3.03;;;;;;;;;;5051074;28;20275;-74
2021/10/22 08:23:48;;;;;;;7.07;2.13;;;;;;;;;;5051342;28;20321;-74
2021/10/22 08:26:17;;;;;;;8.73;2.53;;;;;;;;;;5052087;28;20210;-74
2021/10/22 08:28:45;;;;;;;11.73;2.20;;;;;;;;;;5049909;28;20223;-75
2021/10/22 08:31:12;;;;;;;9.17;2.20;;;;;;;;;;5051053;28;20216;-74
2021/10/22 08:33:39;;;;;;;7.63;2.33;;;;;;;;;;5051506;28;20369;-74
2021/10/22 08:36:06;;;;;;;8.80;1.73;;;;;;;;;;5050057;28;20277;-72
2021/10/22 08:38:33;;;;;;;10.07;3.20;;;;;;;;;;5052057;28;20338;-74
2021/10/22 08:41:00;;;;;;;8.50;2.33;;;;;;;;;;5049934;28;20217;-74
2021/10/22 08:43:28;;;;;;;8.47;2.43;;;;;;;;;;5050183;28;20228;-74
2021/10/22 08:45:56;;;;;;;8.47;2.20;;;;;;;;;;5050102;28;20363;-74
2021/10/22 08:48:23;;;;;;;12.93;3.10;;;;;;;;;;5050721;28;20340;-74
2021/10/22 08:50:50;;;;;;;9.27;2.37;;;;;;;;;;5055153;28;20212;-74
2021/10/22 08:53:17;;;;;;;11.07;2.90;;;;;;;;;;5054095;28;20241;-74
2021/10/22 08:55:44;;;;;;;9.13;2.23;;;;;;;;;;5053153;28;20711;-76
2021/10/22 08:58:11;;;;;;;12.70;2.47;;;;;;;;;;5055318;28;20243;-73
2021/10/22 09:00:40;;;;;;;9.73;2.40;;;;;;;;;;5054486;28;20904;-74
2021/10/22 09:03:10;;;;;;;8.87;2.23;;;;;;;;;;5052777;28;20220;-73
2021/10/22 09:05:38;;;;;;;10.93;2.77;;;;;;;;;;5055460;28;20306;-75
2021/10/22 09:08:06;;;;;;;10.13;2.23;;;;;;;;;;5053362;28;20641;-73
2021/10/22 09:10:35;;;;;;;13.03;2.97;;;;;;;;;;5054711;28;20232;-74
2021/10/22 09:13:04;;;;;;;9.00;2.40;;;;;;;;;;5055110;28;20209;-73
2021/10/22 09:15:32;;;;;;;9.67;2.83;;;;;;;;;;5054568;28;20218;-73
2021/10/22 09:18:05;;;;;;;8.33;2.87;;;;;;;;;;5054111;28;20300;-73
2021/10/22 09:20:32;;;;;;;10.97;2.70;;;;;;;;;;5053195;28;20285;-73
2021/10/22 09:23:00;;;;;;;10.73;2.87;;;;;;;;;;5055781;28;20238;-73
2021/10/22 09:25:29;;;;;;;10.17;2.43;;;;;;;;;;5053698;28;20635;-73
2021/10/22 09:27:57;;;;;;;9.93;2.63;;;;;;;;;;5054176;28;20964;-72
2021/10/22 09:30:33;;;;;;;12.03;3.20;;;;;;;;;;5053058;28;20275;-73
2021/10/22 09:33:03;;;;;;;10.30;2.60;;;;;;;;;;5053992;28;20214;-73
2021/10/22 09:35:38;;;;;;;17.20;3.77;;;;;;;;;;5053676;28;20237;-74
2021/10/22 09:38:17;;;;;;;12.67;2.70;;;;;;;;;;5053835;28;20412;-75
2021/10/22 09:40:45;;;;;;;14.97;2.50;;;;;;;;;;5053606;28;20220;-74
2021/10/22 09:43:17;;;;;;;11.30;3.13;;;;;;;;;;5053760;28;20228;-75
2021/10/22 09:45:47;;;;;;;13.10;3.33;;;;;;;;;;5053594;28;20221;-75
2021/10/22 09:48:29;;;;;;;12.80;2.90;;;;;;;;;;5053475;28;20219;-76
2021/10/22 09:50:58;;;;;;;11.40;3.13;;;;;;;;;;5054210;28;20682;-75
2021/10/22 09:53:29;;;;;;;11.30;2.80;;;;;;;;;;5053577;28;20232;-74
2021/10/22 09:56:06;;;;;;;10.47;3.00;;;;;;;;;;5054281;28;20232;-75
2021/10/22 09:58:34;;;;;;;8.77;2.10;;;;;;;;;;5053971;28;20236;-74
2021/10/22 10:01:11;;;;;;;8.73;2.60;;;;;;;;;;5053018;28;20263;-73
2021/10/22 10:03:40;;;;;;;13.70;2.60;;;;;;;;;;5056062;28;20214;-74
2021/10/22 10:06:08;;;;;;;8.43;2.70;;;;;;;;;;5053065;28;21096;-73
2021/10/22 10:08:36;;;;;;;8.50;3.30;;;;;;;;;;5052711;28;20220;-73
2021/10/22 10:11:04;;;;;;;12.50;3.13;;;;;;;;;;5053622;28;20271;-74
2021/10/22 10:13:33;;;;;;;9.60;2.67;;;;;;;;;;5053356;28;20251;-77
2021/10/22 10:16:00;;;;;;;11.20;3.10;;;;;;;;;;5054105;28;20214;-76
2021/10/22 10:18:28;;;;;;;13.77;3.77;;;;;;;;;;5052979;28;20281;-74
2021/10/22 10:20:59;;;;;;;6.83;2.03;;;;;;;;;;5055202;28;20305;-74
2021/10/22 10:23:26;;;;;;;12.77;2.83;;;;;;;;;;5053357;28;20221;-74
2021/10/22 10:25:52;;;;;;;16.23;2.93;;;;;;;;;;5053378;28;20216;-74
2021/10/22 10:28:38;;;;;;;9.90;2.50;;;;;;;;;;5053576;28;20218;-73
2021/10/22 10:31:31;;;;;;;12.87;2.87;;;;;;;;;;5053157;28;20273;-76
2021/10/22 10:33:57;;;;;;;9.33;2.23;;;;;;;;;;5051209;28;20338;-74
2021/10/22 10:36:48;;;;;;;10.83;3.20;;;;;;;;;;5051919;28;20265;-73
2021/10/22 10:39:35;;;;;;;12.00;2.50;;;;;;;;;;5051487;28;20604;-72
2021/10/22 10:42:16;;;;;;;11.30;3.93;;;;;;;;;;5053083;28;20291;-72
2021/10/22 10:44:43;;;;;;;10.10;2.93;;;;;;;;;;5050434;28;20219;-74
2021/10/22 10:47:43;;;;;;;11.80;2.37;;;;;;;;;;5053774;28;20307;-75
2021/10/22 10:50:11;;;;;;;12.97;2.43;;;;;;;;;;5051955;28;20600;-73
2021/10/22 10:52:50;;;;;;;9.80;2.83;;;;;;;;;;5052266;28;20651;-74
2021/10/22 10:55:24;;;;;;;13.47;3.57;;;;;;;;;;5054221;28;20314;-76
2021/10/22 10:57:51;;;;;;;8.93;2.53;;;;;;;;;;5053512;28;20224;-74
2021/10/22 11:00:21;;;;;;;8.83;2.70;;;;;;;;;;5051458;28;20285;-74
2021/10/22 11:03:07;;;;;;;9.23;2.57;;;;;;;;;;5052297;28;20231;-73
2021/10/22 11:05:57;;;;;;;11.80;2.73;;;;;;;;;;5052569;28;20597;-75
2021/10/22 11:08:36;;;;;;;14.27;3.40;;;;;;;;;;5051912;28;20220;-74
2021/10/22 11:11:05;;;;;;;12.40;2.60;;;;;;;;;;5051913;28;20262;-73
2021/10/22 11:13:44;;;;;;;12.47;3.10;;;;;;;;;;5052766;28;20240;-76
2021/10/22 11:16:25;;;;;;;14.17;3.53;;;;;;;;;;5051905;28;20227;-72
2021/10/22 11:18:54;;;;;;;11.23;3.57;;;;;;;;;;5052137;28;20289;-72
2021/10/22 11:21:21;;;;;;;10.67;2.73;;;;;;;;;;5051171;28;20217;-73
2021/10/22 11:23:49;;;;;;;12.83;2.87;;;;;;;;;;5051876;28;20230;-72
2021/10/22 11:26:18;;;;;;;10.93;2.63;;;;;;;;;;5052634;28;20220;-71
2021/10/22 11:28:45;;;;;;;9.20;2.70;;;;;;;;;;5052445;28;20243;-74
2021/10/22 11:31:11;;;;;;;9.53;2.60;;;;;;;;;;5052139;28;20265;-71
2021/10/22 11:33:42;;;;;;;11.93;2.73;;;;;;;;;;5051324;28;20733;-72
2021/10/22 11:36:09;;;;;;;8.53;1.87;;;;;;;;;;5051296;28;20247;-72
2021/10/22 11:38:36;;;;;;;7.50;1.70;;;;;;;;;;5050552;28;21214;-73
2021/10/22 11:41:13;;;;;;;7.17;1.80;;;;;;;;;;5051427;28;20208;-73
2021/10/22 11:43:39;;;;;;;7.43;1.50;;;;;;;;;;5053131;28;20299;-74
2021/10/22 11:46:18;;;;;;;5.53;1.70;;;;;;;;;;5050692;28;20213;-73
2021/10/22 11:48:50;;;;;;;6.57;1.30;;;;;;;;;;5053506;28;20228;-73
2021/10/22 11:51:16;;;;;;;6.23;1.70;;;;;;;;;;5050100;28;20642;-74
2021/10/22 11:53:43;;;;;;;5.37;1.67;;;;;;;;;;5050866;28;20237;-73
2021/10/22 11:56:09;;;;;;;6.00;1.43;;;;;;;;;;5050450;28;20266;-74
2021/10/22 11:58:38;;;;;;;7.67;1.67;;;;;;;;;;5050351;28;21312;-73
2021/10/22 12:01:04;;;;;;;5.17;1.40;;;;;;;;;;5050693;28;20206;-74
2021/10/22 12:03:32;;;;;;;7.50;1.50;;;;;;;;;;5051702;28;20604;-74
2021/10/22 12:06:01;;;;;;;5.37;1.40;;;;;;;;;;5051932;28;20297;-74
2021/10/22 12:08:28;;;;;;;7.60;1.70;;;;;;;;;;5049467;28;20224;-73
2021/10/22 12:10:55;;;;;;;9.43;1.87;;;;;;;;;;5050515;28;20212;-72
2021/10/22 12:13:29;;;;;;;7.30;1.70;;;;;;;;;;5053149;28;20239;-72
2021/10/22 12:16:10;;;;;;;9.80;1.40;;;;;;;;;;5052282;28;20217;-73
2021/10/22 12:18:38;;;;;;;7.80;1.20;;;;;;;;;;5051606;28;20222;-72
2021/10/22 12:21:08;;;;;;;7.33;1.83;;;;;;;;;;5051080;28;20215;-72
2021/10/22 12:23:37;;;;;;;5.17;1.43;;;;;;;;;;5051532;28;20559;-72
2021/10/22 12:26:03;;;;;;;5.40;1.30;;;;;;;;;;5055400;28;20222;-71
2021/10/22 12:28:29;;;;;;;8.33;1.43;;;;;;;;;;5054051;28;20734;-72
2021/10/22 12:31:09;;;;;;;8.13;1.73;;;;;;;;;;5055348;28;20222;-72
2021/10/22 12:33:35;;;;;;;3.80;1.20;;;;;;;;;;5056180;28;20217;-71
2021/10/22 12:36:17;;;;;;;6.17;1.40;;;;;;;;;;5054792;28;20845;-71
2021/10/22 12:38:44;;;;;;;5.07;1.60;;;;;;;;;;5054216;28;20237;-71
2021/10/22 12:41:12;;;;;;;9.37;1.53;;;;;;;;;;5055960;28;20225;-71
2021/10/22 12:43:38;;;;;;;10.03;2.17;;;;;;;;;;5055942;28;20678;-72
2021/10/22 12:46:06;;;;;;;8.20;1.60;;;;;;;;;;5055361;28;20285;-73
2021/10/22 12:48:35;;;;;;;8.03;1.70;;;;;;;;;;5057140;28;20223;-73
2021/10/22 12:51:07;;;;;;;10.30;1.37;;;;;;;;;;5055072;28;20216;-74
2021/10/22 12:53:37;;;;;;;9.37;2.07;;;;;;;;;;5056294;28;20253;-74
2021/10/22 12:56:10;;;;;;;8.47;2.20;;;;;;;;;;5055156;28;20211;-73
2021/10/22 12:58:38;;;;;;;11.33;2.13;;;;;;;;;;5057007;28;20258;-73
2021/10/22 13:01:12;;;;;;;10.53;2.53;;;;;;;;;;5057408;28;20244;-74
2021/10/22 13:03:42;;;;;;;11.00;1.93;;;;;;;;;;5055230;28;20212;-72
2021/10/22 13:06:35;;;;;;;12.30;2.27;;;;;;;;;;5057555;28;20244;-72
2021/10/22 13:09:33;;;;;;;10.20;2.27;;;;;;;;;;5055197;28;20584;-73
2021/10/22 13:15:06;;;;;;;13.27;2.77;;;;;;;;;;5055573;28;20266;-72
2021/10/22 13:20:35;;;;;;;8.07;2.03;;;;;;;;;;5054194;28;20248;-71
2021/10/22 13:23:03;;;;;;;15.43;3.70;;;;;;;;;;5054942;28;20291;-71
2021/10/22 13:25:29;;;;;;;10.23;2.10;;;;;;;;;;5054827;28;20217;-71
2021/10/22 13:27:56;;;;;;;13.47;1.90;;;;;;;;;;5055638;28;20217;-71
2021/10/22 13:30:28;;;;;;;11.63;2.43;;;;;;;;;;5053790;28;20209;-73
2021/10/22 13:32:55;;;;;;;10.97;1.97;;;;;;;;;;5051262;28;20315;-74
2021/10/22 13:35:23;;;;;;;6.90;1.40;;;;;;;;;;5054266;28;20261;-73
2021/10/22 13:37:50;;;;;;;9.47;2.50;;;;;;;;;;5053744;28;20290;-73
2021/10/22 13:40:16;;;;;;;6.27;1.30;;;;;;;;;;5055382;28;20244;-72
2021/10/22 13:42:43;;;;;;;7.37;1.47;;;;;;;;;;5052745;28;20218;-71
2021/10/22 13:45:10;;;;;;;10.37;1.97;;;;;;;;;;5054508;28;21343;-71
2021/10/22 13:47:38;;;;;;;9.87;2.07;;;;;;;;;;5053699;28;20474;-71
2021/10/22 13:50:07;;;;;;;7.53;1.80;;;;;;;;;;5052812;28;20230;-71
2021/10/22 13:52:35;;;;;;;5.60;1.37;;;;;;;;;;5052312;28;20209;-70
2021/10/22 13:55:02;;;;;;;7.27;1.63;;;;;;;;;;5053860;28;20237;-70
2021/10/22 13:57:28;;;;;;;4.97;1.07;;;;;;;;;;5052978;28;20220;-70
2021/10/22 13:59:54;;;;;;;5.73;1.10;;;;;;;;;;5051460;28;20263;-70
2021/10/22 14:02:21;;;;;;;3.53;1.03;;;;;;;;;;5051687;28;20244;-73
2021/10/22 14:04:47;;;;;;;8.60;2.10;;;;;;;;;;5052313;28;20324;-71
2021/10/22 14:07:15;;;;;;;5.93;1.37;;;;;;;;;;5053400;28;20302;-70
2021/10/22 14:09:42;;;;;;;7.37;1.53;;;;;;;;;;5051571;28;20256;-70
2021/10/22 14:12:13;;;;;;;5.57;1.30;;;;;;;;;;5054497;28;20718;-70
2021/10/22 14:14:44;;;;;;;7.00;1.80;;;;;;;;;;5053470;28;20241;-71
2021/10/22 14:17:29;;;;;;;6.23;2.13;;;;;;;;;;5053952;28;20642;-70
2021/10/22 14:20:12;;;;;;;6.27;1.70;;;;;;;;;;5052167;28;20236;-71
2021/10/22 14:30:54;;;;;;;9.47;1.40;;;;;;;;;;5052919;28;20221;-72
2021/10/22 14:33:21;;;;;;;3.33;1.03;;;;;;;;;;5050995;28;20274;-71
2021/10/22 14:35:47;;;;;;;7.23;1.63;;;;;;;;;;5053745;28;20660;-71
2021/10/22 14:38:14;;;;;;;8.43;1.73;;;;;;;;;;5051135;28;20235;-71
2021/10/22 14:40:42;;;;;;;8.97;1.93;;;;;;;;;;5028056;28;20694;-71
2021/10/22 14:43:12;;;;;;;8.40;1.80;;;;;;;;;;5043921;28;20259;-71
2021/10/22 14:45:45;;;;;;;8.23;1.77;;;;;;;;;;5051792;28;20209;-71
2021/10/22 14:48:14;;;;;;;8.83;1.87;;;;;;;;;;5051543;28;20407;-72
2021/10/22 14:50:42;;;;;;;14.13;2.13;;;;;;;;;;5052823;28;20275;-71
2021/10/22 14:53:16;;;;;;;13.17;2.87;;;;;;;;;;5050637;28;20653;-71
2021/10/22 14:55:47;;;;;;;10.87;2.17;;;;;;;;;;5050715;28;20256;-71
2021/10/22 14:58:15;;;;;;;9.07;1.97;;;;;;;;;;5052490;28;20215;-71
2021/10/22 15:00:42;;;;;;;7.73;1.57;;;;;;;;;;5052501;28;20330;-72
2021/10/22 15:03:10;;;;;;;11.00;2.40;;;;;;;;;;5053256;28;20213;-72
2021/10/22 15:05:37;;;;;;;10.07;2.30;;;;;;;;;;5050994;28;20317;-72